createdAt,value
2018-05-23T00:01:21.020Z,5.57
2018-05-23T00:03:49.321Z,5.73
2018-05-23T00:06:16.840Z,5.30
2018-05-23T00:08:44.462Z,8.53
2018-05-23T00:11:12.027Z,5.40
2018-05-23T00:13:39.564Z,8.40
2018-05-23T00:16:07.081Z,6.20
2018-05-23T00:18:34.617Z,4.70
2018-05-23T00:21:02.136Z,5.90
2018-05-23T00:23:30.436Z,4.57
2018-05-23T00:25:57.943Z,6.20
2018-05-23T00:28:25.483Z,6.07
2018-05-23T00:30:53.005Z,5.13
2018-05-23T00:33:20.516Z,5.30
2018-05-23T00:35:48.056Z,6.63
2018-05-23T00:38:15.567Z,4.77
2018-05-23T00:40:43.868Z,6.30
2018-05-23T00:43:11.384Z,4.47
2018-05-23T00:45:39.689Z,4.63
2018-05-23T00:48:07.964Z,4.47
2018-05-23T00:50:36.264Z,5.43
2018-05-23T00:53:03.776Z,5.50
2018-05-23T00:55:34.359Z,5.00
2018-05-23T00:58:01.871Z,5.10
2018-05-23T01:00:29.420Z,5.40
2018-05-23T01:02:56.937Z,4.90
2018-05-23T01:05:24.451Z,4.80
2018-05-23T01:07:51.983Z,8.83
2018-05-23T01:10:19.495Z,6.20
2018-05-23T01:12:47.796Z,5.20
2018-05-23T01:15:15.317Z,6.00
2018-05-23T01:17:42.857Z,5.10
2018-05-23T01:20:10.389Z,5.23
2018-05-23T01:22:37.928Z,6.33
2018-05-23T01:25:05.444Z,5.87
2018-05-23T01:27:32.980Z,5.23
2018-05-23T01:30:00.491Z,6.13
2018-05-23T01:32:28.797Z,5.10
2018-05-23T01:34:56.312Z,5.60
2018-05-23T01:37:23.848Z,6.70
2018-05-23T01:39:51.372Z,4.77
2018-05-23T01:42:18.947Z,5.50
2018-05-23T01:44:46.459Z,7.93
2018-05-23T01:47:14.759Z,4.93
2018-05-23T01:49:42.275Z,4.53
2018-05-23T01:52:09.803Z,6.13
2018-05-23T01:54:37.356Z,5.20
2018-05-23T01:57:04.892Z,5.67
2018-05-23T01:59:33.176Z,6.30
2018-05-23T02:02:01.580Z,5.83
2018-05-23T02:04:29.139Z,6.40
2018-05-23T02:06:56.648Z,5.37
2018-05-23T02:09:24.179Z,4.67
2018-05-23T02:11:51.698Z,5.97
2018-05-23T02:14:19.235Z,7.73
2018-05-23T02:16:47.517Z,5.40
2018-05-23T02:19:15.820Z,5.27
2018-05-23T02:21:43.340Z,4.83
2018-05-23T02:24:10.880Z,5.93
2018-05-23T02:26:38.389Z,7.60
2018-05-23T02:29:06.692Z,8.33
2018-05-23T02:31:34.252Z,5.80
2018-05-23T02:34:01.787Z,5.00
2018-05-23T02:36:29.313Z,7.13
2018-05-23T02:38:56.849Z,5.03
2018-05-23T02:41:24.364Z,6.47
2018-05-23T02:43:52.664Z,6.47
2018-05-23T02:46:20.181Z,6.10
2018-05-23T02:48:47.792Z,5.80
2018-05-23T02:51:15.308Z,5.40
2018-05-23T02:53:43.604Z,5.03
2018-05-23T02:56:11.156Z,5.20
2018-05-23T02:58:39.447Z,5.77
2018-05-23T03:01:06.985Z,5.73
2018-05-23T03:03:35.260Z,6.03
2018-05-23T03:06:02.868Z,5.53
2018-05-23T03:08:30.383Z,5.90
2018-05-23T03:10:57.919Z,6.40
2018-05-23T03:13:25.448Z,5.70
2018-05-23T03:15:52.988Z,5.77
2018-05-23T03:18:20.567Z,5.73
2018-05-23T03:20:48.095Z,5.03
2018-05-23T03:23:16.387Z,4.80
2018-05-23T03:25:43.923Z,5.23
2018-05-23T03:28:11.451Z,5.03
2018-05-23T03:30:38.989Z,5.63
2018-05-23T03:33:06.508Z,5.13
2018-05-23T03:35:34.816Z,5.37
2018-05-23T03:38:02.336Z,6.90
2018-05-23T03:40:29.889Z,5.60
2018-05-23T03:42:57.411Z,5.93
2018-05-23T03:45:24.936Z,6.60
2018-05-23T03:47:53.252Z,5.17
2018-05-23T03:50:20.772Z,6.57
2018-05-23T03:52:49.068Z,6.40
2018-05-23T03:55:16.733Z,6.03
2018-05-23T03:57:44.212Z,5.77
2018-05-23T04:00:23.552Z,6.17
2018-05-23T04:03:02.935Z,6.10
2018-05-23T04:05:42.229Z,5.67
2018-05-23T04:08:09.769Z,6.60
2018-05-23T04:10:37.298Z,5.13
2018-05-23T04:13:04.836Z,5.40
2018-05-23T04:15:32.491Z,5.23
2018-05-23T04:18:00.034Z,4.70
2018-05-23T04:20:27.556Z,6.37
2018-05-23T04:22:55.868Z,5.40
2018-05-23T04:25:23.386Z,5.37
2018-05-23T04:27:51.693Z,4.87
2018-05-23T04:30:19.277Z,4.63
2018-05-23T04:32:46.820Z,4.93
2018-05-23T04:35:14.392Z,4.17
2018-05-23T04:37:41.928Z,5.23
2018-05-23T04:40:09.457Z,4.90
2018-05-23T04:42:36.997Z,4.30
2018-05-23T04:45:04.529Z,5.33
2018-05-23T04:47:32.068Z,4.67
2018-05-23T04:49:59.652Z,5.20
2018-05-23T04:52:27.205Z,5.30
2018-05-23T04:54:54.723Z,4.63
2018-05-23T04:57:22.248Z,4.80
2018-05-23T04:59:49.867Z,5.10
2018-05-23T05:02:17.399Z,5.93
2018-05-23T05:04:44.880Z,4.57
2018-05-23T05:07:13.162Z,4.97
2018-05-23T05:09:41.470Z,5.63
2018-05-23T05:12:08.998Z,4.67
2018-05-23T05:14:37.297Z,4.07
2018-05-23T05:17:04.821Z,4.80
2018-05-23T05:19:32.361Z,4.77
2018-05-23T05:21:59.885Z,4.40
2018-05-23T05:24:27.428Z,4.17
2018-05-23T05:26:54.957Z,4.60
2018-05-23T05:29:22.497Z,8.40
2018-05-23T05:31:50.094Z,4.97
2018-05-23T05:34:17.587Z,4.90
2018-05-23T05:36:45.109Z,5.40
2018-05-23T05:39:12.724Z,4.70
2018-05-23T05:41:40.261Z,5.87
2018-05-23T05:44:07.786Z,5.40
2018-05-23T05:46:35.402Z,5.80
2018-05-23T05:49:02.918Z,5.07
2018-05-23T05:51:31.223Z,5.03
2018-05-23T05:53:58.752Z,4.90
2018-05-23T05:56:26.362Z,5.80
2018-05-23T05:58:53.877Z,5.23
2018-05-23T06:01:22.185Z,5.27
2018-05-23T06:03:49.700Z,6.13
2018-05-23T06:06:17.241Z,5.67
2018-05-23T06:08:44.759Z,5.50
2018-05-23T06:11:12.301Z,5.33
2018-05-23T06:13:40.625Z,7.20
2018-05-23T06:16:08.182Z,4.77
2018-05-23T06:18:35.745Z,5.07
2018-05-23T06:21:03.284Z,6.50
2018-05-23T06:23:30.807Z,4.70
2018-05-23T06:25:58.343Z,6.30
2018-05-23T06:28:25.865Z,5.63
2018-05-23T06:30:53.412Z,4.77
2018-05-23T06:33:21.720Z,4.07
2018-05-23T06:35:49.243Z,6.00
2018-05-23T06:38:17.552Z,4.97
2018-05-23T06:40:45.125Z,5.07
2018-05-23T06:43:12.686Z,5.30
2018-05-23T06:45:40.212Z,5.57
2018-05-23T06:48:08.523Z,5.07
2018-05-23T06:50:36.084Z,5.40
2018-05-23T06:53:03.620Z,4.77
2018-05-23T06:55:31.209Z,5.13
2018-05-23T06:57:58.764Z,4.63
2018-05-23T07:00:26.285Z,5.67
2018-05-23T07:02:53.884Z,5.93
2018-05-23T07:05:21.404Z,5.30
2018-05-23T07:07:49.709Z,8.70
2018-05-23T07:10:17.228Z,5.10
2018-05-23T07:12:44.848Z,7.50
2018-05-23T07:15:12.370Z,5.17
2018-05-23T07:17:40.672Z,6.17
2018-05-23T07:20:08.193Z,6.00
2018-05-23T07:22:35.808Z,7.20
2018-05-23T07:25:03.372Z,5.20
2018-05-23T07:27:30.892Z,7.93
2018-05-23T07:29:59.200Z,5.87
2018-05-23T07:32:26.720Z,5.63
2018-05-23T07:34:55.025Z,5.63
2018-05-23T07:37:22.540Z,5.60
2018-05-23T07:39:50.079Z,5.30
2018-05-23T07:42:17.603Z,4.93
2018-05-23T07:44:45.141Z,5.17
2018-05-23T07:47:13.429Z,5.07
2018-05-23T07:49:41.737Z,6.23
2018-05-23T07:52:09.303Z,5.90
2018-05-23T07:54:36.861Z,5.60
2018-05-23T07:57:04.391Z,7.03
2018-05-23T07:59:32.702Z,8.23
2018-05-23T08:02:00.226Z,6.00
2018-05-23T08:04:28.537Z,6.97
2018-05-23T08:06:56.056Z,5.30
2018-05-23T08:09:24.357Z,7.43
2018-05-23T08:11:51.878Z,5.60
2018-05-23T08:14:19.424Z,5.83
2018-05-23T08:16:46.945Z,5.90
2018-05-23T08:19:15.444Z,5.57
2018-05-23T08:21:42.985Z,6.07
2018-05-23T08:24:10.563Z,5.87
2018-05-23T08:26:38.128Z,6.43
2018-05-23T08:29:05.700Z,4.93
2018-05-23T08:31:33.241Z,5.70
2018-05-23T08:34:00.765Z,5.40
2018-05-23T08:36:29.171Z,5.40
2018-05-23T08:38:56.653Z,6.47
2018-05-23T08:41:24.194Z,5.93
2018-05-23T08:43:51.720Z,6.37
2018-05-23T08:46:21.197Z,6.47
2018-05-23T08:48:50.679Z,8.00
2018-05-23T08:51:22.584Z,6.93
2018-05-23T08:53:53.934Z,5.33
2018-05-23T08:56:30.954Z,5.37
2018-05-23T08:59:05.850Z,6.03
2018-05-23T09:01:35.093Z,9.23
2018-05-23T09:04:05.501Z,5.57
2018-05-23T09:06:33.920Z,4.80
2018-05-23T09:09:01.474Z,6.87
2018-05-23T09:11:29.008Z,5.20
2018-05-23T09:13:57.297Z,6.20
2018-05-23T09:16:24.835Z,6.33
2018-05-23T09:18:53.116Z,7.30
2018-05-23T09:21:21.527Z,5.57
2018-05-23T09:23:49.045Z,5.43
2018-05-23T09:26:17.368Z,5.03
2018-05-23T09:28:44.891Z,8.33
2018-05-23T09:31:13.177Z,7.10
2018-05-23T09:33:41.586Z,4.93
2018-05-23T09:36:09.104Z,9.73
2018-05-23T09:38:37.424Z,5.20
2018-05-23T09:41:04.984Z,5.83
2018-05-23T09:43:32.530Z,5.90
2018-05-23T09:46:00.048Z,7.03
2018-05-23T09:48:27.591Z,8.90
2018-05-23T09:50:55.117Z,5.33
2018-05-23T09:53:22.688Z,8.40
2018-05-23T09:55:50.211Z,5.90
2018-05-23T09:58:18.512Z,7.80
2018-05-23T10:00:46.093Z,5.33
2018-05-23T10:03:13.650Z,5.23
2018-05-23T10:05:41.210Z,7.03
2018-05-23T10:08:08.765Z,5.43
2018-05-23T10:10:37.357Z,6.40
2018-05-23T10:13:04.922Z,4.97
2018-05-23T10:15:32.449Z,9.10
2018-05-23T10:18:00.748Z,8.90
2018-05-23T10:20:28.264Z,5.93
2018-05-23T10:22:56.550Z,8.10
2018-05-23T10:25:24.989Z,6.17
2018-05-23T10:27:52.516Z,5.67
2018-05-23T10:30:20.821Z,8.03
2018-05-23T10:32:48.344Z,5.57
2018-05-23T10:35:16.644Z,5.50
2018-05-23T10:37:44.160Z,5.33
2018-05-23T10:40:11.709Z,6.17
2018-05-23T10:42:39.233Z,5.07
2018-05-23T10:45:06.793Z,5.70
2018-05-23T10:47:34.309Z,5.63
2018-05-23T10:50:01.849Z,5.13
2018-05-23T10:52:30.139Z,4.93
2018-05-23T10:54:57.754Z,5.53
2018-05-23T10:57:25.273Z,5.07
2018-05-23T10:59:52.816Z,6.03
2018-05-23T11:02:20.337Z,6.70
2018-05-23T11:04:47.877Z,5.03
2018-05-23T11:07:15.393Z,7.90
2018-05-23T11:09:42.959Z,5.20
2018-05-23T11:12:11.252Z,8.83
2018-05-23T11:14:38.862Z,8.83
2018-05-23T11:17:06.404Z,5.90
2018-05-23T11:19:33.921Z,5.00
2018-05-23T11:22:01.466Z,6.17
2018-05-23T11:24:28.990Z,5.53
2018-05-23T11:26:56.531Z,7.37
2018-05-23T11:29:24.819Z,6.83
2018-05-23T11:31:52.404Z,7.13
2018-05-23T11:34:19.924Z,7.97
2018-05-23T11:36:48.245Z,11.33
2018-05-23T11:39:15.809Z,7.77
2018-05-23T11:41:43.359Z,7.73
2018-05-23T11:44:10.888Z,15.40
2018-05-23T11:46:39.238Z,11.47
2018-05-23T11:49:06.768Z,8.27
2018-05-23T11:51:34.329Z,13.30
2018-05-23T11:54:01.852Z,9.40
2018-05-23T11:56:30.157Z,11.23
2018-05-23T11:58:57.744Z,8.93
2018-05-23T12:01:25.281Z,8.70
2018-05-23T12:03:52.796Z,8.57
2018-05-23T12:06:21.125Z,12.83
2018-05-23T12:08:48.650Z,7.80
2018-05-23T12:11:16.942Z,9.27
2018-05-23T12:13:45.244Z,8.53
2018-05-23T12:16:12.781Z,8.50
2018-05-23T12:18:40.364Z,8.07
2018-05-23T12:21:07.884Z,6.70
2018-05-23T12:23:36.192Z,5.07
2018-05-23T12:26:03.712Z,8.60
2018-05-23T12:28:31.248Z,6.17
2018-05-23T12:30:58.767Z,11.20
2018-05-23T12:33:27.073Z,6.03
2018-05-23T12:35:54.596Z,6.33
2018-05-23T12:38:22.908Z,6.57
2018-05-23T12:40:50.433Z,7.30
2018-05-23T12:43:18.748Z,7.33
2018-05-23T12:45:46.282Z,6.63
2018-05-23T12:48:14.590Z,6.00
2018-05-23T12:50:42.151Z,7.47
2018-05-23T12:53:09.693Z,7.63
2018-05-23T12:55:37.216Z,5.33
2018-05-23T12:58:04.756Z,6.43
2018-05-23T13:00:32.272Z,5.87
2018-05-23T13:02:59.857Z,8.90
2018-05-23T13:05:27.377Z,7.47
2018-05-23T13:07:55.694Z,6.53
2018-05-23T13:10:23.217Z,5.67
2018-05-23T13:12:51.501Z,6.17
2018-05-23T13:15:19.821Z,6.30
2018-05-23T13:17:47.365Z,6.20
2018-05-23T13:20:14.906Z,5.53
2018-05-23T13:22:43.227Z,6.37
2018-05-23T13:25:10.764Z,6.03
2018-05-23T13:27:38.285Z,6.10
2018-05-23T13:30:05.834Z,6.83
2018-05-23T13:32:33.357Z,10.83
2018-05-23T13:35:00.900Z,7.90
2018-05-23T13:37:28.493Z,8.57
2018-05-23T13:39:56.032Z,8.97
2018-05-23T13:42:23.553Z,7.87
2018-05-23T13:44:51.102Z,10.40
2018-05-23T13:47:18.644Z,9.33
2018-05-23T13:49:46.189Z,8.20
2018-05-23T13:52:13.704Z,7.97
2018-05-23T13:54:42.032Z,7.90
2018-05-23T13:57:09.549Z,8.50
2018-05-23T13:59:37.853Z,9.00
2018-05-23T14:02:05.429Z,8.80
2018-05-23T14:04:32.993Z,8.77
2018-05-23T14:07:00.515Z,7.40
2018-05-23T14:09:28.795Z,8.20
2018-05-23T14:11:57.096Z,8.40
2018-05-23T14:14:24.616Z,8.00
2018-05-23T14:16:52.232Z,7.93
2018-05-23T14:19:19.794Z,6.77
2018-05-23T14:21:47.313Z,7.47
2018-05-23T14:24:15.639Z,7.40
2018-05-23T14:26:43.176Z,9.47
2018-05-23T14:29:10.696Z,6.93
2018-05-23T14:31:38.235Z,9.73
2018-05-23T14:34:05.774Z,8.50
2018-05-23T14:36:33.312Z,12.83
2018-05-23T14:39:00.836Z,12.43
2018-05-23T14:41:28.372Z,9.50
2018-05-23T14:43:55.889Z,9.50
2018-05-23T14:46:23.442Z,8.90
2018-05-23T14:48:51.729Z,8.47
2018-05-23T14:51:19.324Z,8.37
2018-05-23T14:53:47.185Z,8.30
2018-05-23T14:56:15.117Z,7.60
2018-05-23T14:58:42.634Z,8.13
2018-05-23T15:01:10.158Z,8.80
2018-05-23T15:03:37.732Z,8.90
2018-05-23T15:06:05.249Z,14.23
2018-05-23T15:08:33.617Z,8.53
2018-05-23T15:11:01.111Z,9.00
2018-05-23T15:13:28.647Z,6.90
2018-05-23T15:15:56.257Z,7.70
2018-05-23T15:18:23.796Z,8.77
2018-05-23T15:20:51.314Z,8.90
2018-05-23T15:23:18.941Z,7.37
2018-05-23T15:25:46.469Z,12.73
2018-05-23T15:28:14.881Z,9.50
2018-05-23T15:30:42.399Z,8.90
2018-05-23T15:33:10.701Z,9.00
2018-05-23T15:35:38.284Z,8.80
2018-05-23T15:38:05.840Z,7.20
2018-05-23T15:40:33.400Z,6.50
2018-05-23T15:43:00.940Z,7.43
2018-05-23T15:45:28.533Z,10.57
2018-05-23T15:47:56.096Z,8.13
2018-05-23T15:50:23.633Z,9.47
2018-05-23T15:52:51.213Z,8.80
2018-05-23T15:55:18.752Z,7.40
2018-05-23T15:57:46.277Z,9.17
2018-05-23T16:00:13.891Z,8.50
2018-05-23T16:02:41.409Z,7.50
2018-05-23T16:05:09.728Z,7.83
2018-05-23T16:07:37.288Z,8.23
2018-05-23T16:10:04.856Z,7.37
2018-05-23T16:12:32.374Z,8.53
2018-05-23T16:15:00.686Z,8.60
2018-05-23T16:17:28.209Z,9.67
2018-05-23T16:19:56.533Z,9.00
2018-05-23T16:22:24.090Z,10.00
2018-05-23T16:24:51.632Z,10.20
2018-05-23T16:27:19.160Z,8.47
2018-05-23T16:29:46.696Z,8.63
2018-05-23T16:32:14.217Z,9.53
2018-05-23T16:34:41.792Z,9.53
2018-05-23T16:37:09.313Z,9.50
2018-05-23T16:39:37.616Z,10.10
2018-05-23T16:42:05.192Z,9.17
2018-05-23T16:44:32.778Z,10.03
2018-05-23T16:47:00.292Z,8.57
2018-05-23T16:49:27.879Z,8.53
2018-05-23T16:51:55.436Z,9.00
2018-05-23T16:54:22.954Z,9.37
2018-05-23T16:56:51.261Z,9.37
2018-05-23T16:59:19.391Z,9.90
2018-05-23T17:01:46.937Z,9.73
2018-05-23T17:04:14.463Z,9.80
2018-05-23T17:06:42.001Z,9.10
2018-05-23T17:09:09.524Z,8.87
2018-05-23T17:11:37.151Z,9.07
2018-05-23T17:14:04.678Z,7.93
2018-05-23T17:16:32.980Z,8.37
2018-05-23T17:19:00.500Z,8.27
2018-05-23T17:21:28.830Z,9.20
2018-05-23T17:23:56.384Z,8.40
2018-05-23T17:26:23.957Z,7.67
2018-05-23T17:28:51.511Z,8.17
2018-05-23T17:31:19.048Z,8.30
2018-05-23T17:33:46.572Z,12.20
2018-05-23T17:36:14.879Z,7.37
2018-05-23T17:38:43.179Z,7.23
2018-05-23T17:41:10.721Z,8.80
2018-05-23T17:43:38.245Z,8.27
2018-05-23T17:46:05.781Z,7.93
2018-05-23T17:48:33.298Z,7.43
2018-05-23T17:51:00.860Z,7.90
2018-05-23T17:53:28.380Z,7.37
2018-05-23T17:55:56.009Z,8.30
2018-05-23T17:58:23.544Z,8.47
2018-05-23T18:00:51.127Z,8.30
2018-05-23T18:03:18.665Z,8.13
2018-05-23T18:05:46.185Z,9.70
2018-05-23T18:08:13.725Z,9.47
2018-05-23T18:10:41.243Z,8.77
2018-05-23T18:13:09.549Z,8.47
2018-05-23T18:15:37.104Z,8.30
2018-05-23T18:18:04.644Z,8.80
2018-05-23T18:20:32.266Z,9.07
2018-05-23T18:22:59.892Z,8.43
2018-05-23T18:25:27.408Z,8.83
2018-05-23T18:27:55.717Z,9.23
2018-05-23T18:30:23.238Z,8.70
2018-05-23T18:32:50.781Z,11.97
2018-05-23T18:35:18.306Z,11.23
2018-05-23T18:37:45.876Z,9.90
2018-05-23T18:40:13.402Z,11.10
2018-05-23T18:42:41.709Z,12.10
2018-05-23T18:45:09.227Z,11.20
2018-05-23T18:47:37.531Z,10.50
2018-05-23T18:50:05.056Z,11.90
2018-05-23T18:52:32.680Z,13.27
2018-05-23T18:55:00.206Z,12.53
2018-05-23T18:57:28.521Z,14.00
2018-05-23T18:59:56.081Z,13.57
2018-05-23T19:02:23.658Z,12.90
2018-05-23T19:04:51.202Z,13.07
2018-05-23T19:07:18.765Z,11.90
2018-05-23T19:09:46.312Z,13.63
2018-05-23T19:12:13.836Z,14.97
2018-05-23T19:14:42.149Z,14.27
2018-05-23T19:17:09.677Z,14.40
2018-05-23T19:19:38.021Z,13.87
2018-05-23T19:22:05.528Z,13.73
2018-05-23T19:24:33.840Z,18.03
2018-05-23T19:27:01.361Z,17.87
2018-05-23T19:29:28.936Z,14.07
2018-05-23T19:31:56.468Z,13.70
2018-05-23T19:34:24.012Z,13.23
2018-05-23T19:36:51.544Z,12.83
2018-05-23T19:39:19.673Z,16.73
2018-05-23T19:41:47.969Z,13.97
2018-05-23T19:44:15.552Z,14.87
2018-05-23T19:46:43.080Z,13.47
2018-05-23T19:49:11.400Z,13.53
2018-05-23T19:51:38.928Z,13.47
2018-05-23T19:54:06.478Z,13.10
2018-05-23T19:56:34.867Z,12.60
2018-05-23T19:59:02.341Z,14.23
2018-05-23T20:01:30.845Z,12.23
2018-05-23T20:03:58.372Z,16.60
2018-05-23T20:06:26.679Z,11.83
2018-05-23T20:08:54.208Z,13.50
2018-05-23T20:11:22.525Z,13.03
2018-05-23T20:13:50.053Z,15.27
2018-05-23T20:16:18.367Z,13.20
2018-05-23T20:18:45.894Z,13.77
2018-05-23T20:21:14.208Z,14.30
2018-05-23T20:23:41.736Z,13.70
2018-05-23T20:26:10.153Z,14.40
2018-05-23T20:28:37.682Z,14.83
2018-05-23T20:31:05.272Z,14.73
2018-05-23T20:33:32.801Z,15.17
2018-05-23T20:36:01.119Z,14.50
2018-05-23T20:38:28.667Z,15.43
2018-05-23T20:40:56.209Z,13.63
2018-05-23T20:43:23.741Z,17.90
2018-05-23T20:45:52.058Z,13.63
2018-05-23T20:48:19.583Z,14.43
2018-05-23T20:50:47.871Z,12.80
2018-05-23T20:53:16.184Z,13.20
2018-05-23T20:55:43.834Z,15.10
2018-05-23T20:58:11.499Z,14.93
2018-05-23T21:00:38.960Z,18.10
2018-05-23T21:03:06.536Z,15.17
2018-05-23T21:05:34.140Z,15.23
2018-05-23T21:08:01.780Z,13.20
2018-05-23T21:10:29.309Z,14.90
2018-05-23T21:12:56.881Z,15.53
2018-05-23T21:15:24.444Z,15.00
2018-05-23T21:17:51.987Z,15.07
2018-05-23T21:20:19.507Z,15.63
2018-05-23T21:22:47.053Z,16.80
2018-05-23T21:25:14.583Z,14.27
2018-05-23T21:27:42.131Z,12.93
2018-05-23T21:30:09.656Z,15.57
2018-05-23T21:32:37.201Z,13.50
2018-05-23T21:35:04.725Z,13.27
2018-05-23T21:37:32.270Z,14.07
2018-05-23T21:39:59.796Z,14.67
2018-05-23T21:42:27.337Z,14.63
2018-05-23T21:44:54.867Z,17.47
2018-05-23T21:47:22.428Z,12.77
2018-05-23T21:49:49.949Z,13.70
2018-05-23T21:52:18.256Z,18.20
2018-05-23T21:54:45.828Z,13.53
2018-05-23T21:57:13.392Z,13.10
2018-05-23T21:59:40.935Z,14.23
2018-05-23T22:02:08.457Z,14.93
2018-05-23T22:04:36.770Z,16.60
2018-05-23T22:07:04.293Z,13.50
2018-05-23T22:09:32.018Z,14.87
2018-05-23T22:11:59.545Z,13.77
2018-05-23T22:14:27.137Z,13.47
2018-05-23T22:16:54.661Z,13.00
2018-05-23T22:19:22.201Z,15.77
2018-05-23T22:21:49.809Z,13.83
2018-05-23T22:24:17.352Z,14.10
2018-05-23T22:26:44.881Z,16.07
2018-05-23T22:29:13.196Z,17.13
2018-05-23T22:31:40.721Z,12.37
2018-05-23T22:34:08.269Z,12.47
2018-05-23T22:36:35.797Z,11.40
2018-05-23T22:39:03.344Z,12.80
2018-05-23T22:41:30.922Z,13.07
2018-05-23T22:43:58.468Z,13.00
2018-05-23T22:46:25.993Z,12.33
2018-05-23T22:48:54.310Z,13.33
2018-05-23T22:51:21.876Z,12.67
2018-05-23T22:53:49.401Z,11.57
2018-05-23T22:56:17.712Z,15.07
2018-05-23T22:58:45.236Z,11.97
2018-05-23T23:01:13.540Z,10.47
2018-05-23T23:03:41.071Z,11.73
2018-05-23T23:06:09.387Z,11.23
2018-05-23T23:08:36.909Z,11.03
2018-05-23T23:11:05.232Z,11.93
2018-05-23T23:13:32.795Z,11.40
2018-05-23T23:16:00.337Z,10.83
2018-05-23T23:18:27.861Z,11.70
2018-05-23T23:23:29.384Z,17.00
2018-05-23T23:25:56.931Z,10.13
2018-05-23T23:28:24.458Z,18.60
2018-05-23T23:30:52.768Z,11.30
2018-05-23T23:33:20.378Z,11.67
2018-05-23T23:35:47.920Z,13.13
2018-05-23T23:38:15.469Z,11.03
2018-05-23T23:40:43.016Z,12.67
2018-05-23T23:43:10.540Z,12.73
2018-05-23T23:45:38.856Z,12.70
2018-05-23T23:48:06.376Z,14.63
2018-05-23T23:50:34.704Z,12.70
2018-05-23T23:53:02.228Z,12.17
2018-05-23T23:55:30.517Z,17.50
2018-05-23T23:57:58.065Z,14.83
